KGSH/GSH METAR and TAF weather

Enter ICAO airport designator
Station Type Date Time Source
KGSH METAR 2021/02/27 09:00 UTC NOAA

KGSH 270900Z AUTO 25006KT 1 3/4SM BR OVC003 01/00 A2987 RMK AO2 T00110000


Station Type Date Time Source
KGSH Decoded METAR 2021/02/27 09:00 UTC NOAA

GOSHEN MUNICIPAL AIRPORT, IN, United States (KGSH) 41-32N 85-47W 252M
Feb 27, 2021 - 04:00 AM EST / 2021.02.27 0900 UTC
Wind: from the WSW (250 degrees) at 7 MPH (6 KT):0
Visibility: 1 3/4 mile(s):0
Sky conditions: overcast
Weather: mist
Temperature: 34.0 F (1.1 C)
Windchill: 28 F (-2 C):1
Dew Point: 32.0 F (0.0 C)
Relative Humidity: 92%
Pressure (altimeter): 29.87 in. Hg (1011 hPa)
ob: KGSH 270900Z AUTO 25006KT 1 3/4SM BR OVC003 01/00 A2987 RMK AO2 T00110000
cycle: 9

Station Type Date Time Source
KGSH TAF UTC NOAA

Error!

Example: see airport list